OI97 weather

St. Ann's Heliport
Westerville, Ohio, United States

Public forecast

Using degrees Fahrenheit for public forecast. Weather courtesy of forecast.io.

Closest aviation weather report (METAR) to St. Ann's Heliport

Closest report is The Ohio State University Airport - Don Scott Field, 6.3 nm (11.6 km) WSW. Retrieved 2020/05/30 12:53 UTC (10 minutes ago):

KOSU 301253Z 34009KT 10SM BKN049 BKN060 17/11 A3011 RMK AO2 SLP192 T01670111

Closest aviation forecast (TAF) to St. Ann's Heliport

Closest forecast is John Glenn Columbus International Airport, 7.3 nm (13.6 km) SSE. Retrieved 2020/05/30 12:33 UTC (30 minutes ago):

TAF KCMH 301130Z 3012/3112 30004KT P6SM BKN080 FM301500 33010KT P6SM BKN050 FM310000 34005KT P6SM SKC